HRHO2: North Canadian River

Data processed at Fri Dec 08 2017 23:24


All information presented herein is the property of the government of the United States of America and may be revised or deleted at any time without prior notice.
Dissemination of this information without the expressed written consent of the Public Affairs Office, Tulsa District U.S. Army Corps of Engineers is strictly prohibited.
These data are gathered electronically and, as presented, have not undergone any form of quality control. These data are not guaranteed to be valid or correct.
Go to home page.
Go to station list.

Upstream stations:

Downstream station:
Previous Day
Next Day
Current Day
    
SHEF ID:       HRHO2     North Canadian River near Harrah
STATION TYPE:  

                STAGE  RIV-FLOW  WTR-TEMP   DIS-OXY        PH   CONDUCT  BAT-LOAD
                   ft       cfs         F      mg/l        su   umho/cm      volt
              Ccp-Rev   Ccp-Rev   Ccp-Rev   Ccp-Rev   Ccp-Rev   Ccp-Rev   Ccp-Rev
(US/Central)
12/06 00:00      4.72       138     46.09      7.84      7.53      1102     12.54
12/06 01:00      4.76       146     45.81      7.63      7.51      1101     12.48
12/06 02:00      4.79       151     45.57      7.48      7.51      1101     12.48
12/06 03:00      4.80       153     45.32      7.21      7.51      1101     12.48
12/06 04:00      4.82       157     44.96      7.22      7.49      1111     12.42
12/06 05:00      4.80       153     44.49      7.19      7.50      1123     12.42
12/06 06:00      4.81       155     43.99      7.37      7.50      1133     12.36
12/06 07:00      4.80       153     43.50      7.55      7.52      1137     12.36
12/06 08:00      4.80       153     43.05      7.74      7.50      1134     12.30
12/06 09:00      4.73       140     42.96      8.06      7.51      1126     12.36
12/06 10:00      4.70       134     43.45      8.12      7.53      1119     12.42
12/06 11:00      4.67       129     44.60      8.34      7.62      1117     13.36
12/06 12:00      4.67       129     45.97      6.53      7.53      1125     13.88
12/06 13:00      4.62       120     47.39      8.35      7.54      1130     13.65
12/06 14:00      4.57       111     48.56      8.11      7.61      1137     13.53
12/06 15:00      4.56       110     49.32      8.44      7.61      1139     13.36
12/06 16:00      4.56       110     49.46      8.37      7.64      1144     13.30
12/06 17:00      4.55       108     48.99      8.25      7.66      1139     13.18
12/06 18:00      4.55       108     48.42      8.17      7.64      1134     12.89
12/06 19:00      4.54       106     47.93      8.09      7.61      1131     12.71
12/06 20:00      4.51       101     47.44      7.95      7.60      1131     12.65
12/06 21:00      4.51       101     46.92      7.91      7.62      1126     12.60
12/06 22:00      4.50       100     46.38      7.86      7.62      1123     12.60
12/06 23:00      4.50       100     45.93      7.72      7.61      1118     12.60